sensor_id;sensor_type;location;lat;lon;timestamp;pressure;altitude;pressure_sealevel;temperature;humidity
75991;BME280;64673;52.276;10.560;2023-03-15T00:01:56;100043.09;;;1.67;73.42
75991;BME280;64673;52.276;10.560;2023-03-15T00:04:21;100038.22;;;1.64;72.96
75991;BME280;64673;52.276;10.560;2023-03-15T00:06:49;100040.13;;;1.75;71.98
75991;BME280;64673;52.276;10.560;2023-03-15T00:09:14;100044.25;;;1.71;72.53
75991;BME280;64673;52.276;10.560;2023-03-15T00:11:40;100049.44;;;1.66;73.83
75991;BME280;64673;52.276;10.560;2023-03-15T00:14:05;100041.09;;;1.62;72.97
75991;BME280;64673;52.276;10.560;2023-03-15T00:16:30;100045.75;;;1.67;72.94
75991;BME280;64673;52.276;10.560;2023-03-15T00:18:57;100057.31;;;1.72;72.50
75991;BME280;64673;52.276;10.560;2023-03-15T00:21:22;100060.81;;;1.55;73.35
75991;BME280;64673;52.276;10.560;2023-03-15T00:23:48;100054.91;;;1.53;73.84
75991;BME280;64673;52.276;10.560;2023-03-15T00:26:13;100058.88;;;1.62;73.53
75991;BME280;64673;52.276;10.560;2023-03-15T00:28:39;100067.16;;;1.54;73.77
75991;BME280;64673;52.276;10.560;2023-03-15T00:31:16;100066.94;;;1.55;73.08
75991;BME280;64673;52.276;10.560;2023-03-15T00:33:42;100062.97;;;1.46;73.01
75991;BME280;64673;52.276;10.560;2023-03-15T00:36:09;100073.41;;;1.59;73.42
75991;BME280;64673;52.276;10.560;2023-03-15T00:38:37;100083.72;;;1.56;72.90
75991;BME280;64673;52.276;10.560;2023-03-15T00:41:06;100082.88;;;1.55;73.46
75991;BME280;64673;52.276;10.560;2023-03-15T00:43:32;100088.34;;;1.60;73.38
75991;BME280;64673;52.276;10.560;2023-03-15T00:45:58;100086.97;;;1.58;73.06
75991;BME280;64673;52.276;10.560;2023-03-15T00:48:23;100094.47;;;1.61;72.86
75991;BME280;64673;52.276;10.560;2023-03-15T00:50:49;100100.81;;;1.60;72.28
75991;BME280;64673;52.276;10.560;2023-03-15T00:53:14;100094.25;;;1.62;72.75
75991;BME280;64673;52.276;10.560;2023-03-15T00:55:39;100092.41;;;1.63;72.93
75991;BME280;64673;52.276;10.560;2023-03-15T00:58:07;100096.09;;;1.62;72.75
75991;BME280;64673;52.276;10.560;2023-03-15T01:00:32;100097.88;;;1.68;72.28
75991;BME280;64673;52.276;10.560;2023-03-15T01:02:57;100099.50;;;1.69;72.24
75991;BME280;64673;52.276;10.560;2023-03-15T01:05:23;100107.03;;;1.54;74.12
75991;BME280;64673;52.276;10.560;2023-03-15T01:07:48;100112.63;;;1.64;72.46
75991;BME280;64673;52.276;10.560;2023-03-15T01:10:15;100114.25;;;1.65;72.75
75991;BME280;64673;52.276;10.560;2023-03-15T01:12:41;100102.44;;;1.61;73.06
75991;BME280;64673;52.276;10.560;2023-03-15T01:15:07;100110.63;;;1.59;72.76
75991;BME280;64673;52.276;10.560;2023-03-15T01:17:33;100113.06;;;1.61;72.84
75991;BME280;64673;52.276;10.560;2023-03-15T01:19:59;100116.31;;;1.63;72.65
75991;BME280;64673;52.276;10.560;2023-03-15T01:22:25;100114.09;;;1.60;72.77
75991;BME280;64673;52.276;10.560;2023-03-15T01:24:51;100115.59;;;1.56;73.59
75991;BME280;64673;52.276;10.560;2023-03-15T01:27:16;100121.72;;;1.56;71.86
75991;BME280;64673;52.276;10.560;2023-03-15T01:29:41;100125.19;;;1.57;73.26
75991;BME280;64673;52.276;10.560;2023-03-15T01:32:07;100119.72;;;1.52;72.73
75991;BME280;64673;52.276;10.560;2023-03-15T01:34:33;100122.97;;;1.54;73.12
75991;BME280;64673;52.276;10.560;2023-03-15T01:36:58;100119.41;;;1.60;73.32
75991;BME280;64673;52.276;10.560;2023-03-15T01:39:25;100127.38;;;1.60;73.01
75991;BME280;64673;52.276;10.560;2023-03-15T01:41:50;100127.91;;;1.50;73.16
75991;BME280;64673;52.276;10.560;2023-03-15T01:44:17;100119.56;;;1.65;72.26
75991;BME280;64673;52.276;10.560;2023-03-15T01:46:43;100122.03;;;1.66;72.64
75991;BME280;64673;52.276;10.560;2023-03-15T01:49:12;100124.81;;;1.71;71.44
75991;BME280;64673;52.276;10.560;2023-03-15T01:54:25;100127.09;;;1.86;72.17
75991;BME280;64673;52.276;10.560;2023-03-15T01:56:54;100127.97;;;1.98;71.08
75991;BME280;64673;52.276;10.560;2023-03-15T01:59:30;100131.22;;;2.00;70.48
75991;BME280;64673;52.276;10.560;2023-03-15T02:01:57;100130.91;;;2.08;71.01
75991;BME280;64673;52.276;10.560;2023-03-15T02:04:28;100131.25;;;2.12;69.59
75991;BME280;64673;52.276;10.560;2023-03-15T02:06:57;100128.38;;;2.13;70.49
75991;BME280;64673;52.276;10.560;2023-03-15T02:09:34;100124.69;;;2.14;70.49
75991;BME280;64673;52.276;10.560;2023-03-15T02:12:00;100123.34;;;2.24;69.71
75991;BME280;64673;52.276;10.560;2023-03-15T02:14:26;100127.03;;;2.22;69.84
75991;BME280;64673;52.276;10.560;2023-03-15T02:16:53;100130.06;;;2.26;69.47
75991;BME280;64673;52.276;10.560;2023-03-15T02:19:43;100131.56;;;2.22;70.10
75991;BME280;64673;52.276;10.560;2023-03-15T02:25:22;100134.72;;;2.31;68.85
75991;BME280;64673;52.276;10.560;2023-03-15T02:27:50;100141.66;;;2.32;69.46
75991;BME280;64673;52.276;10.560;2023-03-15T02:30:16;100137.22;;;2.26;70.51
75991;BME280;64673;52.276;10.560;2023-03-15T02:32:42;100131.59;;;2.34;70.06
75991;BME280;64673;52.276;10.560;2023-03-15T02:35:08;100135.88;;;2.35;70.18
75991;BME280;64673;52.276;10.560;2023-03-15T02:37:33;100143.59;;;2.25;71.04
75991;BME280;64673;52.276;10.560;2023-03-15T02:39:59;100148.47;;;2.28;69.45
75991;BME280;64673;52.276;10.560;2023-03-15T02:42:24;100140.03;;;2.31;70.37
75991;BME280;64673;52.276;10.560;2023-03-15T02:44:50;100136.78;;;2.29;69.57
75991;BME280;64673;52.276;10.560;2023-03-15T02:47:29;100148.13;;;2.36;69.31
75991;BME280;64673;52.276;10.560;2023-03-15T02:49:57;100147.69;;;2.39;68.61
75991;BME280;64673;52.276;10.560;2023-03-15T02:52:22;100152.56;;;2.42;68.45
75991;BME280;64673;52.276;10.560;2023-03-15T02:54:48;100162.41;;;2.41;68.28
75991;BME280;64673;52.276;10.560;2023-03-15T02:57:15;100159.69;;;2.30;69.63
75991;BME280;64673;52.276;10.560;2023-03-15T02:59:41;100168.34;;;2.25;70.28
75991;BME280;64673;52.276;10.560;2023-03-15T03:02:07;100171.59;;;2.27;71.19
75991;BME280;64673;52.276;10.560;2023-03-15T03:04:36;100174.47;;;2.26;70.76
75991;BME280;64673;52.276;10.560;2023-03-15T03:07:01;100171.97;;;2.31;70.94
75991;BME280;64673;52.276;10.560;2023-03-15T03:09:27;100170.34;;;2.30;71.74
75991;BME280;64673;52.276;10.560;2023-03-15T03:11:52;100179.66;;;2.20;70.93
75991;BME280;64673;52.276;10.560;2023-03-15T03:14:17;100180.34;;;2.16;71.86
75991;BME280;64673;52.276;10.560;2023-03-15T03:16:43;100182.47;;;2.26;71.25
75991;BME280;64673;52.276;10.560;2023-03-15T03:19:09;100190.00;;;2.29;70.04
75991;BME280;64673;52.276;10.560;2023-03-15T03:21:37;100191.19;;;2.33;71.39
75991;BME280;64673;52.276;10.560;2023-03-15T03:24:02;100199.00;;;2.28;71.74
75991;BME280;64673;52.276;10.560;2023-03-15T03:26:27;100198.09;;;2.34;70.96
75991;BME280;64673;52.276;10.560;2023-03-15T03:28:57;100202.06;;;2.31;69.97
75991;BME280;64673;52.276;10.560;2023-03-15T03:31:24;100198.28;;;2.20;72.29
75991;BME280;64673;52.276;10.560;2023-03-15T03:33:50;100205.59;;;2.25;70.75
75991;BME280;64673;52.276;10.560;2023-03-15T03:36:15;100212.91;;;2.30;72.34
75991;BME280;64673;52.276;10.560;2023-03-15T03:38:42;100215.78;;;2.28;70.99
75991;BME280;64673;52.276;10.560;2023-03-15T03:41:09;100216.59;;;2.29;70.59
75991;BME280;64673;52.276;10.560;2023-03-15T03:43:35;100219.06;;;2.30;71.65
75991;BME280;64673;52.276;10.560;2023-03-15T03:46:00;100221.94;;;2.29;71.68
75991;BME280;64673;52.276;10.560;2023-03-15T03:48:26;100219.09;;;2.24;71.31
75991;BME280;64673;52.276;10.560;2023-03-15T03:50:51;100227.34;;;2.22;72.42
75991;BME280;64673;52.276;10.560;2023-03-15T03:53:16;100232.00;;;2.08;72.76
75991;BME280;64673;52.276;10.560;2023-03-15T03:55:41;100233.31;;;1.99;73.69
75991;BME280;64673;52.276;10.560;2023-03-15T03:58:07;100237.22;;;2.15;73.71
75991;BME280;64673;52.276;10.560;2023-03-15T04:00:33;100245.22;;;2.15;72.12
75991;BME280;64673;52.276;10.560;2023-03-15T04:02:59;100246.63;;;2.17;72.69
75991;BME280;64673;52.276;10.560;2023-03-15T04:05:26;100240.69;;;2.15;72.80
75991;BME280;64673;52.276;10.560;2023-03-15T04:07:52;100254.38;;;2.19;73.45
75991;BME280;64673;52.276;10.560;2023-03-15T04:10:17;100247.88;;;2.15;72.89
75991;BME280;64673;52.276;10.560;2023-03-15T04:12:43;100249.59;;;2.09;72.19
75991;BME280;64673;52.276;10.560;2023-03-15T04:15:09;100258.59;;;2.08;72.94
75991;BME280;64673;52.276;10.560;2023-03-15T04:17:38;100250.44;;;2.03;72.89
75991;BME280;64673;52.276;10.560;2023-03-15T04:20:04;100265.84;;;2.01;73.33
75991;BME280;64673;52.276;10.560;2023-03-15T04:22:32;100270.19;;;1.96;74.63
75991;BME280;64673;52.276;10.560;2023-03-15T04:24:59;100275.50;;;1.96;74.15
75991;BME280;64673;52.276;10.560;2023-03-15T04:27:26;100279.13;;;2.01;74.69
75991;BME280;64673;52.276;10.560;2023-03-15T04:29:51;100283.56;;;2.07;74.20
75991;BME280;64673;52.276;10.560;2023-03-15T04:32:17;100278.69;;;2.04;74.46
75991;BME280;64673;52.276;10.560;2023-03-15T04:34:42;100276.75;;;1.93;75.06
75991;BME280;64673;52.276;10.560;2023-03-15T04:37:07;100280.00;;;1.95;75.74
75991;BME280;64673;52.276;10.560;2023-03-15T04:39:33;100285.75;;;1.92;75.59
75991;BME280;64673;52.276;10.560;2023-03-15T04:41:58;100289.09;;;1.88;76.43
75991;BME280;64673;52.276;10.560;2023-03-15T04:44:24;100298.09;;;1.87;77.10
75991;BME280;64673;52.276;10.560;2023-03-15T04:46:51;100300.22;;;1.78;78.37
75991;BME280;64673;52.276;10.560;2023-03-15T04:49:16;100295.25;;;1.81;78.00
75991;BME280;64673;52.276;10.560;2023-03-15T04:51:41;100305.69;;;1.83;77.84
75991;BME280;64673;52.276;10.560;2023-03-15T04:54:07;100312.47;;;1.79;78.65
75991;BME280;64673;52.276;10.560;2023-03-15T04:56:32;100306.72;;;1.82;78.92
75991;BME280;64673;52.276;10.560;2023-03-15T04:58:57;100304.25;;;1.80;79.59
75991;BME280;64673;52.276;10.560;2023-03-15T05:01:27;100316.91;;;1.85;79.91
75991;BME280;64673;52.276;10.560;2023-03-15T05:03:54;100316.59;;;1.75;80.77
75991;BME280;64673;52.276;10.560;2023-03-15T05:06:19;100315.72;;;1.81;80.14
75991;BME280;64673;52.276;10.560;2023-03-15T05:08:44;100334.94;;;1.83;80.69
75991;BME280;64673;52.276;10.560;2023-03-15T05:11:11;100335.53;;;1.85;80.82
75991;BME280;64673;52.276;10.560;2023-03-15T05:13:36;100335.09;;;1.88;80.78
75991;BME280;64673;52.276;10.560;2023-03-15T05:16:02;100335.84;;;1.95;81.20
75991;BME280;64673;52.276;10.560;2023-03-15T05:18:28;100345.94;;;1.87;81.28
75991;BME280;64673;52.276;10.560;2023-03-15T05:20:53;100348.53;;;1.93;81.14
75991;BME280;64673;52.276;10.560;2023-03-15T05:23:22;100345.88;;;1.93;81.07
75991;BME280;64673;52.276;10.560;2023-03-15T05:25:52;100345.75;;;1.88;81.56
75991;BME280;64673;52.276;10.560;2023-03-15T05:28:22;100352.94;;;1.81;82.14
75991;BME280;64673;52.276;10.560;2023-03-15T05:30:48;100363.31;;;1.89;82.28
75991;BME280;64673;52.276;10.560;2023-03-15T05:33:13;100369.50;;;1.83;82.92
75991;BME280;64673;52.276;10.560;2023-03-15T05:35:38;100375.41;;;1.85;82.10
75991;BME280;64673;52.276;10.560;2023-03-15T05:38:04;100372.06;;;1.96;82.38
75991;BME280;64673;52.276;10.560;2023-03-15T05:40:30;100386.06;;;1.85;82.19
75991;BME280;64673;52.276;10.560;2023-03-15T05:42:57;100383.13;;;1.93;82.71
75991;BME280;64673;52.276;10.560;2023-03-15T05:45:23;100386.97;;;1.97;82.23
75991;BME280;64673;52.276;10.560;2023-03-15T05:47:49;100394.28;;;2.02;82.73
75991;BME280;64673;52.276;10.560;2023-03-15T05:50:14;100390.19;;;2.06;82.58
75991;BME280;64673;52.276;10.560;2023-03-15T05:52:40;100409.63;;;2.06;81.60
75991;BME280;64673;52.276;10.560;2023-03-15T05:55:05;100410.16;;;1.90;82.50
75991;BME280;64673;52.276;10.560;2023-03-15T05:57:31;100419.09;;;1.96;82.87
75991;BME280;64673;52.276;10.560;2023-03-15T05:59:56;100410.50;;;2.00;82.34
75991;BME280;64673;52.276;10.560;2023-03-15T06:02:21;100428.94;;;1.95;82.59
75991;BME280;64673;52.276;10.560;2023-03-15T06:04:47;100423.59;;;1.95;83.33
75991;BME280;64673;52.276;10.560;2023-03-15T06:07:12;100422.38;;;1.98;83.32
75991;BME280;64673;52.276;10.560;2023-03-15T06:09:38;100441.75;;;2.05;82.63
75991;BME280;64673;52.276;10.560;2023-03-15T06:12:04;100446.38;;;2.16;82.86
75991;BME280;64673;52.276;10.560;2023-03-15T06:14:29;100451.16;;;2.07;82.47
75991;BME280;64673;52.276;10.560;2023-03-15T06:16:54;100455.00;;;2.11;82.34
75991;BME280;64673;52.276;10.560;2023-03-15T06:19:20;100459.53;;;2.04;82.71
75991;BME280;64673;52.276;10.560;2023-03-15T06:21:46;100460.69;;;2.15;82.86
75991;BME280;64673;52.276;10.560;2023-03-15T06:24:11;100472.44;;;2.07;82.60
75991;BME280;64673;52.276;10.560;2023-03-15T06:26:38;100477.91;;;2.12;82.89
75991;BME280;64673;52.276;10.560;2023-03-15T06:29:03;100479.84;;;2.24;81.94
75991;BME280;64673;52.276;10.560;2023-03-15T06:31:28;100475.91;;;2.08;83.35
75991;BME280;64673;52.276;10.560;2023-03-15T06:33:54;100485.88;;;2.12;83.00
75991;BME280;64673;52.276;10.560;2023-03-15T06:36:19;100488.72;;;2.17;82.42
75991;BME280;64673;52.276;10.560;2023-03-15T06:38:45;100497.91;;;2.22;82.33
75991;BME280;64673;52.276;10.560;2023-03-15T06:41:10;100498.44;;;2.30;82.12
75991;BME280;64673;52.276;10.560;2023-03-15T06:43:39;100502.78;;;2.25;82.43
75991;BME280;64673;52.276;10.560;2023-03-15T06:46:04;100502.34;;;2.28;81.83
75991;BME280;64673;52.276;10.560;2023-03-15T06:48:29;100508.06;;;2.31;82.01
75991;BME280;64673;52.276;10.560;2023-03-15T06:50:55;100508.09;;;2.25;82.06
75991;BME280;64673;52.276;10.560;2023-03-15T06:53:21;100513.59;;;2.30;82.42
75991;BME280;64673;52.276;10.560;2023-03-15T06:55:46;100514.53;;;2.42;82.17
75991;BME280;64673;52.276;10.560;2023-03-15T06:58:12;100515.03;;;2.32;81.97
75991;BME280;64673;52.276;10.560;2023-03-15T07:00:38;100520.78;;;2.54;81.80
75991;BME280;64673;52.276;10.560;2023-03-15T07:03:03;100528.00;;;2.47;81.27
75991;BME280;64673;52.276;10.560;2023-03-15T07:05:29;100524.50;;;2.46;81.82
75991;BME280;64673;52.276;10.560;2023-03-15T07:07:54;100526.81;;;2.43;81.62
75991;BME280;64673;52.276;10.560;2023-03-15T07:10:19;100521.56;;;2.54;81.62
75991;BME280;64673;52.276;10.560;2023-03-15T07:12:45;100526.25;;;2.59;81.53
75991;BME280;64673;52.276;10.560;2023-03-15T07:15:11;100533.56;;;2.88;80.13
75991;BME280;64673;52.276;10.560;2023-03-15T07:17:37;100532.50;;;2.71;81.38
75991;BME280;64673;52.276;10.560;2023-03-15T07:20:03;100540.59;;;2.83;82.28
75991;BME280;64673;52.276;10.560;2023-03-15T07:22:33;100547.13;;;2.62;81.68
75991;BME280;64673;52.276;10.560;2023-03-15T07:24:58;100548.16;;;2.61;81.91
75991;BME280;64673;52.276;10.560;2023-03-15T07:27:23;100541.31;;;2.47;81.42
75991;BME280;64673;52.276;10.560;2023-03-15T07:29:49;100550.97;;;2.41;82.43
75991;BME280;64673;52.276;10.560;2023-03-15T07:32:14;100558.91;;;2.48;81.82
75991;BME280;64673;52.276;10.560;2023-03-15T07:34:40;100560.16;;;2.70;81.98
75991;BME280;64673;52.276;10.560;2023-03-15T07:37:05;100565.78;;;2.55;81.33
75991;BME280;64673;52.276;10.560;2023-03-15T07:39:31;100571.25;;;2.67;81.37
75991;BME280;64673;52.276;10.560;2023-03-15T07:41:59;100576.63;;;2.85;80.62
75991;BME280;64673;52.276;10.560;2023-03-15T07:44:25;100580.38;;;3.03;79.96
75991;BME280;64673;52.276;10.560;2023-03-15T07:46:50;100581.06;;;3.35;79.45
75991;BME280;64673;52.276;10.560;2023-03-15T07:49:16;100584.16;;;3.31;77.98
75991;BME280;64673;52.276;10.560;2023-03-15T07:51:41;100602.00;;;3.13;79.22
75991;BME280;64673;52.276;10.560;2023-03-15T07:54:07;100589.38;;;3.02;78.74
75991;BME280;64673;52.276;10.560;2023-03-15T07:56:33;100594.47;;;3.28;78.96
75991;BME280;64673;52.276;10.560;2023-03-15T07:58:58;100599.00;;;3.46;78.60
75991;BME280;64673;52.276;10.560;2023-03-15T08:01:24;100600.97;;;3.14;78.13
75991;BME280;64673;52.276;10.560;2023-03-15T08:03:49;100596.06;;;3.11;78.82
75991;BME280;64673;52.276;10.560;2023-03-15T08:06:14;100609.03;;;3.25;78.51
75991;BME280;64673;52.276;10.560;2023-03-15T08:08:40;100602.09;;;3.43;77.46
75991;BME280;64673;52.276;10.560;2023-03-15T08:11:05;100607.81;;;3.64;77.67
75991;BME280;64673;52.276;10.560;2023-03-15T08:13:31;100616.38;;;3.30;76.52
75991;BME280;64673;52.276;10.560;2023-03-15T08:15:56;100610.91;;;3.25;77.42
75991;BME280;64673;52.276;10.560;2023-03-15T08:18:21;100617.09;;;3.19;77.51
75991;BME280;64673;52.276;10.560;2023-03-15T08:20:47;100616.72;;;3.15;78.89
75991;BME280;64673;52.276;10.560;2023-03-15T08:23:12;100627.31;;;3.22;78.17
75991;BME280;64673;52.276;10.560;2023-03-15T08:25:41;100628.53;;;3.26;77.94
75991;BME280;64673;52.276;10.560;2023-03-15T08:28:07;100617.66;;;3.46;77.56
75991;BME280;64673;52.276;10.560;2023-03-15T08:30:33;100632.72;;;3.58;76.76
75991;BME280;64673;52.276;10.560;2023-03-15T08:32:58;100632.81;;;3.82;76.46
75991;BME280;64673;52.276;10.560;2023-03-15T08:35:24;100633.59;;;3.71;75.08
75991;BME280;64673;52.276;10.560;2023-03-15T08:37:50;100654.97;;;3.46;76.35
75991;BME280;64673;52.276;10.560;2023-03-15T08:40:18;100639.97;;;3.70;75.59
75991;BME280;64673;52.276;10.560;2023-03-15T08:42:50;100651.38;;;3.58;73.16
75991;BME280;64673;52.276;10.560;2023-03-15T08:45:16;100650.13;;;3.79;74.08
75991;BME280;64673;52.276;10.560;2023-03-15T08:47:42;100652.50;;;4.17;73.93
75991;BME280;64673;52.276;10.560;2023-03-15T08:50:10;100652.59;;;3.92;71.95
75991;BME280;64673;52.276;10.560;2023-03-15T08:52:36;100670.56;;;3.67;69.74
75991;BME280;64673;52.276;10.560;2023-03-15T08:55:02;100664.41;;;3.66;70.28
75991;BME280;64673;52.276;10.560;2023-03-15T08:57:31;100667.22;;;3.90;70.16
75991;BME280;64673;52.276;10.560;2023-03-15T09:00:00;100677.13;;;4.19;70.72
75991;BME280;64673;52.276;10.560;2023-03-15T09:02:36;100688.50;;;3.96;69.81
75991;BME280;64673;52.276;10.560;2023-03-15T09:05:03;100694.78;;;3.65;71.57
75991;BME280;64673;52.276;10.560;2023-03-15T09:07:30;100691.09;;;3.42;72.47
75991;BME280;64673;52.276;10.560;2023-03-15T09:09:56;100691.22;;;3.28;72.32
75991;BME280;64673;52.276;10.560;2023-03-15T09:12:23;100691.56;;;3.39;71.94
75991;BME280;64673;52.276;10.560;2023-03-15T09:14:48;100703.22;;;3.62;71.03
75991;BME280;64673;52.276;10.560;2023-03-15T09:17:13;100695.09;;;3.94;70.08
75991;BME280;64673;52.276;10.560;2023-03-15T09:19:39;100708.47;;;4.24;68.73
75991;BME280;64673;52.276;10.560;2023-03-15T09:22:05;100708.84;;;4.27;66.59
75991;BME280;64673;52.276;10.560;2023-03-15T09:24:31;100709.63;;;3.80;67.88
75991;BME280;64673;52.276;10.560;2023-03-15T09:26:56;100722.50;;;3.83;69.16
75991;BME280;64673;52.276;10.560;2023-03-15T09:29:22;100720.50;;;3.96;69.01
75991;BME280;64673;52.276;10.560;2023-03-15T09:31:47;100718.59;;;4.22;67.62
75991;BME280;64673;52.276;10.560;2023-03-15T09:34:12;100728.94;;;4.48;66.21
75991;BME280;64673;52.276;10.560;2023-03-15T09:36:38;100732.81;;;4.34;65.41
75991;BME280;64673;52.276;10.560;2023-03-15T09:39:03;100730.22;;;4.09;66.56
75991;BME280;64673;52.276;10.560;2023-03-15T09:47:04;100743.91;;;4.79;65.38
75991;BME280;64673;52.276;10.560;2023-03-15T09:49:40;100737.00;;;4.60;65.76
75991;BME280;64673;52.276;10.560;2023-03-15T09:52:32;100733.19;;;5.09;65.36
75991;BME280;64673;52.276;10.560;2023-03-15T09:54:59;100754.00;;;4.77;65.19
75991;BME280;64673;52.276;10.560;2023-03-15T09:58:00;100749.69;;;4.64;64.40
75991;BME280;64673;52.276;10.560;2023-03-15T10:03:00;100757.19;;;4.37;65.30
75991;BME280;64673;52.276;10.560;2023-03-15T10:05:38;100762.13;;;4.70;63.65
75991;BME280;64673;52.276;10.560;2023-03-15T10:08:15;100755.38;;;4.68;63.75
75991;BME280;64673;52.276;10.560;2023-03-15T10:11:05;100755.47;;;4.91;62.90
75991;BME280;64673;52.276;10.560;2023-03-15T10:16:54;100761.72;;;4.55;64.00
75991;BME280;64673;52.276;10.560;2023-03-15T10:19:16;100761.06;;;5.01;60.57
75991;BME280;64673;52.276;10.560;2023-03-15T10:24:56;100746.25;;;5.17;61.55
75991;BME280;64673;52.276;10.560;2023-03-15T10:30:22;100735.75;;;6.04;58.78
75991;BME280;64673;52.276;10.560;2023-03-15T10:32:59;100740.13;;;5.63;59.48
75991;BME280;64673;52.276;10.560;2023-03-15T10:35:26;100734.66;;;5.35;56.55
75991;BME280;64673;52.276;10.560;2023-03-15T10:37:51;100737.88;;;5.13;56.44
75991;BME280;64673;52.276;10.560;2023-03-15T10:40:37;100742.78;;;5.28;56.29
75991;BME280;64673;52.276;10.560;2023-03-15T10:43:21;100747.56;;;5.26;56.88
75991;BME280;64673;52.276;10.560;2023-03-15T10:48:24;100756.41;;;5.85;56.15
75991;BME280;64673;52.276;10.560;2023-03-15T10:50:50;100747.00;;;5.71;57.29
75991;BME280;64673;52.276;10.560;2023-03-15T10:53:18;100752.25;;;5.77;56.39
75991;BME280;64673;52.276;10.560;2023-03-15T10:55:47;100747.91;;;5.53;53.68
75991;BME280;64673;52.276;10.560;2023-03-15T10:58:38;100764.66;;;5.37;57.15
75991;BME280;64673;52.276;10.560;2023-03-15T11:01:06;100780.50;;;4.78;61.09
75991;BME280;64673;52.276;10.560;2023-03-15T11:03:33;100778.03;;;4.95;60.34
75991;BME280;64673;52.276;10.560;2023-03-15T11:05:59;100778.56;;;5.15;60.03
75991;BME280;64673;52.276;10.560;2023-03-15T11:08:40;100775.09;;;5.27;59.73
75991;BME280;64673;52.276;10.560;2023-03-15T11:11:07;100772.78;;;5.19;59.51
75991;BME280;64673;52.276;10.560;2023-03-15T11:13:34;100773.53;;;5.49;58.31
75991;BME280;64673;52.276;10.560;2023-03-15T11:19:17;100776.53;;;5.64;53.39
75991;BME280;64673;52.276;10.560;2023-03-15T11:21:18;100774.22;;;5.56;53.45
75991;BME280;64673;52.276;10.560;2023-03-15T11:23:46;100777.16;;;6.24;56.20
75991;BME280;64673;52.276;10.560;2023-03-15T11:26:17;100777.25;;;6.18;55.84
75991;BME280;64673;52.276;10.560;2023-03-15T11:28:47;100773.09;;;6.10;56.42
75991;BME280;64673;52.276;10.560;2023-03-15T11:31:14;100781.31;;;6.44;57.73
75991;BME280;64673;52.276;10.560;2023-03-15T11:36:24;100779.56;;;6.38;54.87
75991;BME280;64673;52.276;10.560;2023-03-15T11:38:50;100777.19;;;6.01;54.92
75991;BME280;64673;52.276;10.560;2023-03-15T11:41:24;100780.47;;;6.83;56.34
75991;BME280;64673;52.276;10.560;2023-03-15T11:44:09;100783.09;;;6.95;56.98
75991;BME280;64673;52.276;10.560;2023-03-15T11:46:47;100789.25;;;6.27;52.15
75991;BME280;64673;52.276;10.560;2023-03-15T11:51:58;100772.50;;;7.17;51.72
75991;BME280;64673;52.276;10.560;2023-03-15T11:54:27;100771.09;;;6.57;47.28
75991;BME280;64673;52.276;10.560;2023-03-15T11:59:34;100768.34;;;6.52;45.94
75991;BME280;64673;52.276;10.560;2023-03-15T12:04:53;100781.78;;;7.26;43.70
75991;BME280;64673;52.276;10.560;2023-03-15T12:12:44;100774.25;;;7.40;46.81
75991;BME280;64673;52.276;10.560;2023-03-15T12:17:42;100789.41;;;7.17;46.47
75991;BME280;64673;52.276;10.560;2023-03-15T12:22:47;100782.88;;;6.96;46.55
75991;BME280;64673;52.276;10.560;2023-03-15T12:25:15;100773.34;;;7.51;45.93
75991;BME280;64673;52.276;10.560;2023-03-15T12:27:49;100774.31;;;7.61;48.79
75991;BME280;64673;52.276;10.560;2023-03-15T12:30:39;100779.38;;;7.58;46.18
75991;BME280;64673;52.276;10.560;2023-03-15T12:33:14;100776.50;;;7.48;44.78
75991;BME280;64673;52.276;10.560;2023-03-15T12:35:40;100784.16;;;6.94;45.08
75991;BME280;64673;52.276;10.560;2023-03-15T12:38:18;100783.75;;;7.02;45.71
75991;BME280;64673;52.276;10.560;2023-03-15T12:43:40;100789.34;;;7.46;45.46
75991;BME280;64673;52.276;10.560;2023-03-15T12:54:36;100820.91;;;6.42;45.35
75991;BME280;64673;52.276;10.560;2023-03-15T12:57:03;100829.19;;;6.29;46.73
75991;BME280;64673;52.276;10.560;2023-03-15T12:59:53;100823.34;;;6.43;46.55
75991;BME280;64673;52.276;10.560;2023-03-15T13:05:44;100805.06;;;6.29;46.22
75991;BME280;64673;52.276;10.560;2023-03-15T13:08:23;100826.22;;;6.65;45.06
75991;BME280;64673;52.276;10.560;2023-03-15T13:18:32;100842.44;;;6.47;44.54
75991;BME280;64673;52.276;10.560;2023-03-15T13:21:13;100852.91;;;5.78;52.29
75991;BME280;64673;52.276;10.560;2023-03-15T13:23:43;100849.66;;;5.35;56.83
75991;BME280;64673;52.276;10.560;2023-03-15T13:28:55;100871.25;;;5.03;57.96
75991;BME280;64673;52.276;10.560;2023-03-15T13:31:24;100884.75;;;5.27;59.07
75991;BME280;64673;52.276;10.560;2023-03-15T13:33:56;100881.81;;;4.98;58.86
75991;BME280;64673;52.276;10.560;2023-03-15T13:36:28;100880.06;;;4.74;59.15
75991;BME280;64673;52.276;10.560;2023-03-15T13:39:13;100894.38;;;4.98;58.54
75991;BME280;64673;52.276;10.560;2023-03-15T13:41:40;100898.44;;;5.19;58.82
75991;BME280;64673;52.276;10.560;2023-03-15T13:44:19;100892.59;;;4.92;59.79
75991;BME280;64673;52.276;10.560;2023-03-15T13:46:47;100909.00;;;4.95;59.88
75991;BME280;64673;52.276;10.560;2023-03-15T13:49:13;100912.09;;;5.10;59.79
75991;BME280;64673;52.276;10.560;2023-03-15T13:51:39;100917.31;;;5.05;61.05
75991;BME280;64673;52.276;10.560;2023-03-15T13:54:06;100908.63;;;5.40;61.13
75991;BME280;64673;52.276;10.560;2023-03-15T13:56:34;100917.31;;;5.05;61.40
75991;BME280;64673;52.276;10.560;2023-03-15T13:59:02;100922.56;;;5.42;59.20
75991;BME280;64673;52.276;10.560;2023-03-15T14:01:29;100921.22;;;5.51;60.76
75991;BME280;64673;52.276;10.560;2023-03-15T14:04:04;100924.44;;;5.41;60.51
75991;BME280;64673;52.276;10.560;2023-03-15T14:06:30;100925.66;;;5.27;60.49
75991;BME280;64673;52.276;10.560;2023-03-15T14:09:04;100918.69;;;5.56;61.66